Time;durP1;ratioP1;P1;durP2;ratioP2;P2;SDS_P1;SDS_P2;PMS_P1;PMS_P2;Temp;Humidity;BMP_temperature;BMP_pressure;BME280_temperature;BME280_humidity;BME280_pressure;Samples;Min_cycle;Max_cycle;Signal;HPM_P1;HPM_P2
2021/12/03 00:00:25;;;;;;;9.47;6.53;;;;;;;14.60;33.42;97430.38;5055837;28;20501;-74
2021/12/03 00:03:15;;;;;;;7.70;3.67;;;;;;;14.33;33.30;97425.81;5090545;28;20143;-73
2021/12/03 00:41:45;;;;;;;5.80;3.67;;;;;;;14.46;32.41;97390.81;5089852;28;20435;-75
2021/12/03 00:44:11;;;;;;;3.93;3.20;;;;;;;14.23;33.20;97436.22;5056608;28;20459;-76
2021/12/03 00:46:37;;;;;;;3.80;3.00;;;;;;;14.24;33.31;97438.69;5055031;28;20047;-75
2021/12/03 00:49:02;;;;;;;8.00;4.43;;;;;;;14.48;32.92;97426.94;5055046;28;20040;-74
2021/12/03 00:51:28;;;;;;;19.33;8.20;;;;;;;14.64;32.83;97431.53;5054854;28;20071;-75
2021/12/03 00:53:54;;;;;;;12.50;6.53;;;;;;;15.38;32.20;97462.63;5070341;28;20393;-76
2021/12/03 00:56:20;;;;;;;26.23;9.70;;;;;;;15.08;31.97;97421.97;5087639;28;20139;-76
2021/12/03 00:58:46;;;;;;;25.90;10.17;;;;;;;14.96;32.07;97445.25;5086558;28;20130;-76
2021/12/03 01:01:11;;;;;;;10.50;4.93;;;;;;;14.91;32.09;97445.16;5069824;28;20036;-76
2021/12/03 01:03:38;;;;;;;24.70;7.93;;;;;;;15.52;32.17;97441.72;5052866;28;20039;-76
2021/12/03 01:06:05;;;;;;;24.13;7.57;;;;;;;14.63;32.80;97437.09;5086226;28;20047;-77
2021/12/03 01:08:35;;;;;;;26.17;9.40;;;;;;;14.68;32.90;97447.91;5069790;28;20530;-78
2021/12/03 01:11:06;;;;;;;17.50;6.97;;;;;;;15.63;32.32;97435.50;5055316;28;20040;-76
2021/12/03 01:13:33;;;;;;;;;;;;;;;16.18;30.91;97430.97;5072106;28;20402;-76
2021/12/03 01:15:59;;;;;;;19.40;9.37;;;;;;;14.86;32.41;97426.34;5088836;28;19927;-76
2021/12/03 01:18:25;;;;;;;18.83;7.53;;;;;;;15.02;32.34;97455.00;5089693;28;20044;-74
2021/12/03 01:20:51;;;;;;;13.40;6.80;;;;;;;15.10;32.17;97439.38;5072025;28;20052;-75
2021/12/03 01:23:16;;;;;;;15.80;8.17;;;;;;;14.83;32.59;97435.66;5071846;28;20071;-76
2021/12/03 01:25:42;;;;;;;25.27;10.17;;;;;;;14.84;32.07;97437.28;5088662;28;20483;-76
2021/12/03 01:28:08;;;;;;;40.17;12.17;;;;;;;15.34;32.18;97448.09;5071815;28;20036;-75
2021/12/03 01:30:35;;;;;;;23.90;10.03;;;;;;;15.40;32.39;97439.13;5105682;28;20510;-74
2021/12/03 01:33:05;;;;;;;35.30;11.67;;;;;;;15.19;32.30;97432.56;5055009;28;20262;-75
2021/12/03 01:35:30;;;;;;;26.43;11.43;;;;;;;15.14;32.08;97455.75;5072072;28;20040;-76
2021/12/03 01:37:56;;;;;;;33.97;11.85;;;;;;;15.20;32.17;97449.44;5088893;28;20044;-75
2021/12/03 01:40:24;;;;;;;21.37;10.20;;;;;;;15.30;32.61;97481.69;5088465;28;20105;-74
2021/12/03 01:42:50;;;;;;;43.80;13.10;;;;;;;15.40;32.34;97468.56;5054534;28;20081;-75
2021/12/03 01:45:20;;;;;;;37.50;13.37;;;;;;;15.64;31.96;97439.78;5088186;28;20036;-74
2021/12/03 01:47:47;;;;;;;35.40;12.60;;;;;;;15.43;32.17;97478.78;5056110;28;20047;-74
2021/12/03 01:50:14;;;;;;;30.27;12.67;;;;;;;15.50;32.14;97466.03;5058413;28;20041;-73
2021/12/03 01:52:39;;;;;;;35.23;12.80;;;;;;;14.61;32.84;97463.25;5092376;28;20407;-73
2021/12/03 01:55:08;;;;;;;40.57;13.53;;;;;;;15.54;32.40;97483.25;5093523;28;20040;-74
2021/12/03 01:57:33;;;;;;;27.25;12.05;;;;;;;15.36;31.98;97482.63;5075269;28;20052;-72
2021/12/03 01:59:59;;;;;;;27.00;11.63;;;;;;;15.42;32.07;97465.63;5058675;28;20423;-73
2021/12/03 02:02:27;;;;;;;27.60;12.13;;;;;;;15.57;31.89;97487.28;5093322;28;20047;-73
2021/12/03 02:04:53;;;;;;;33.87;12.67;;;;;;;14.86;32.74;97487.81;5074824;28;20035;-74
2021/12/03 02:07:19;;;;;;;33.07;11.63;;;;;;;15.25;32.35;97484.31;5074951;28;20046;-74
2021/12/03 02:09:45;;;;;;;25.07;11.70;;;;;;;14.81;32.54;97504.56;5058189;28;20517;-75
2021/12/03 02:12:10;;;;;;;27.50;12.00;;;;;;;14.97;31.97;97476.28;5058226;28;20040;-75
2021/12/03 02:14:36;;;;;;;25.95;12.15;;;;;;;15.23;31.86;97479.19;5074801;28;20081;-75
2021/12/03 02:17:02;;;;;;;33.23;11.13;;;;;;;14.67;32.93;97494.34;5091482;28;20052;-77
2021/12/03 02:19:29;;;;;;;29.40;11.87;;;;;;;14.52;32.49;97478.84;5058376;28;20047;-74
2021/12/03 02:21:55;;;;;;;30.03;11.73;;;;;;;15.08;32.87;97494.13;5074595;28;20048;-73
2021/12/03 02:24:21;;;;;;;25.40;11.35;;;;;;;14.74;32.95;97508.41;5074648;28;20040;-73
2021/12/03 02:26:49;;;;;;;31.85;12.35;;;;;;;14.91;32.65;97494.06;5091197;28;20185;-73
2021/12/03 02:29:15;;;;;;;29.63;12.57;;;;;;;14.82;32.95;97524.88;5091236;28;20048;-74
2021/12/03 02:31:41;;;;;;;31.07;12.50;;;;;;;15.10;32.31;97506.19;5108556;28;20044;-73
2021/12/03 02:34:07;;;;;;;40.37;13.57;;;;;;;14.60;33.02;97491.00;5091128;28;20047;-74
2021/12/03 02:36:32;;;;;;;35.90;14.27;;;;;;;14.87;32.47;97486.75;5108284;28;20602;-75
2021/12/03 02:38:58;;;;;;;30.17;13.10;;;;;;;15.12;32.20;97461.34;5074710;28;20120;-75
2021/12/03 02:41:24;;;;;;;37.90;14.33;;;;;;;15.07;32.44;97490.63;5057297;28;20390;-74
2021/12/03 02:43:50;;;;;;;36.17;12.90;;;;;;;14.96;32.54;97493.38;5091193;28;20178;-75
2021/12/03 02:46:15;;;;;;;34.40;14.13;;;;;;;15.21;32.18;97523.25;5073952;28;20048;-74
2021/12/03 02:48:41;;;;;;;33.23;14.00;;;;;;;14.91;32.12;97467.31;5091157;28;20048;-74
2021/12/03 02:51:07;;;;;;;37.80;14.77;;;;;;;15.06;31.95;97497.03;5073328;28;20036;-73
2021/12/03 02:53:35;;;;;;;39.93;14.60;;;;;;;15.53;32.10;97497.66;5073792;28;20106;-76
2021/12/03 02:56:00;;;;;;;46.53;14.53;;;;;;;15.07;32.31;97506.69;5107504;28;20446;-74
2021/12/03 02:58:26;;;;;;;45.60;14.67;;;;;;;15.19;32.00;97498.63;5056488;28;20040;-75
2021/12/03 03:00:53;;;;;;;49.40;15.43;;;;;;;15.33;32.13;97499.94;5091871;28;20542;-74
2021/12/03 03:03:20;;;;;;;50.17;14.13;;;;;;;15.04;32.14;97490.28;5073614;28;20040;-74
2021/12/03 03:05:57;;;;;;;45.33;14.90;;;;;;;16.02;31.26;97530.88;5056834;28;20043;-74
2021/12/03 03:08:24;;;;;;;40.40;13.57;;;;;;;15.44;32.00;97528.53;5090234;28;20526;-75
2021/12/03 03:10:50;;;;;;;44.67;13.70;;;;;;;14.76;32.34;97498.31;5073400;28;20089;-75
2021/12/03 03:13:16;;;;;;;44.45;14.32;;;;;;;14.70;32.57;97510.72;5056424;28;20087;-74
2021/12/03 03:15:42;;;;;;;42.15;12.45;;;;;;;15.36;32.16;97520.84;5073570;28;20055;-74
2021/12/03 03:18:19;;;;;;;38.60;13.02;;;;;;;15.90;31.55;97533.63;5056619;28;20100;-75
2021/12/03 03:20:45;;;;;;;33.17;11.67;;;;;;;15.20;31.95;97529.66;5073069;28;20044;-73
2021/12/03 03:23:12;;;;;;;35.33;13.10;;;;;;;15.64;31.72;97528.06;5073103;28;20135;-73
2021/12/03 03:25:42;;;;;;;40.53;13.30;;;;;;;15.95;31.44;97525.69;5056386;28;20051;-72
2021/12/03 03:28:09;;;;;;;40.60;13.57;;;;;;;15.63;31.71;97532.63;5039829;28;20032;-77
2021/12/03 03:30:36;;;;;;;37.07;12.53;;;;;;;15.72;31.49;97533.03;5090623;28;20071;-75
2021/12/03 03:33:04;;;;;;;35.47;11.97;;;;;;;15.48;32.02;97528.88;5090433;28;20504;-75
2021/12/03 03:35:31;;;;;;;39.97;14.27;;;;;;;15.06;32.27;97517.59;5055630;28;20083;-76
2021/12/03 03:38:00;;;;;;;36.37;13.10;;;;;;;15.11;31.92;97518.50;5056676;28;20044;-78
2021/12/03 03:40:26;;;;;;;36.95;12.25;;;;;;;15.07;32.13;97533.41;5056578;28;20036;-78
2021/12/03 03:42:52;;;;;;;47.10;12.95;;;;;;;14.93;31.99;97533.91;5040107;28;20081;-77
2021/12/03 03:45:21;;;;;;;32.60;11.63;;;;;;;15.53;31.62;97531.66;5056055;28;20044;-79
2021/12/03 03:47:47;;;;;;;36.10;12.15;;;;;;;15.17;32.34;97546.19;5073059;28;20412;-79
2021/12/03 03:50:14;;;;;;;40.22;12.00;;;;;;;15.77;31.53;97541.97;5073061;28;20108;-78
2021/12/03 03:52:42;;;;;;;29.20;9.80;;;;;;;14.42;32.81;97523.22;5106516;28;20130;-78
2021/12/03 03:55:11;;;;;;;33.00;11.50;;;;;;;15.60;31.94;97519.75;5056316;28;20201;-77
2021/12/03 03:57:37;;;;;;;24.92;10.23;;;;;;;15.09;32.25;97549.22;5073326;28;20518;-79
2021/12/03 04:00:05;;;;;;;25.50;10.15;;;;;;;15.75;31.84;97554.78;5056483;28;20157;-79
2021/12/03 04:02:38;;;;;;;23.30;9.80;;;;;;;15.77;31.51;97543.84;5090335;28;20536;-79
2021/12/03 04:05:04;;;;;;;31.58;10.45;;;;;;;15.21;31.60;97544.63;5056950;28;20052;-82
2021/12/03 04:07:30;;;;;;;27.37;10.10;;;;;;;15.19;31.73;97552.09;5057592;28;20416;-79
2021/12/03 04:09:55;;;;;;;22.97;9.27;;;;;;;15.41;31.52;97555.75;5056440;28;20036;-77
2021/12/03 04:12:21;;;;;;;25.57;8.97;;;;;;;15.00;31.37;97556.00;5073759;28;20056;-78
2021/12/03 04:14:47;;;;;;;25.52;8.45;;;;;;;15.13;31.74;97572.56;5107058;28;20063;-78
2021/12/03 04:17:12;;;;;;;25.37;7.33;;;;;;;15.48;31.30;97582.38;5066442;28;20041;-76
2021/12/03 04:19:38;;;;;;;25.10;8.00;;;;;;;15.06;30.96;97560.38;5090721;28;20039;-76
2021/12/03 04:22:05;;;;;;;16.07;6.07;;;;;;;15.34;31.48;97572.97;5088198;28;20134;-78
2021/12/03 04:24:30;;;;;;;22.70;7.87;;;;;;;15.19;31.47;97584.19;5070965;28;20617;-77
2021/12/03 04:26:56;;;;;;;28.80;8.93;;;;;;;15.08;31.35;97552.94;5087859;28;20048;-77
2021/12/03 04:29:22;;;;;;;19.87;8.23;;;;;;;15.04;31.50;97583.84;5087544;28;20094;-77
2021/12/03 04:31:47;;;;;;;32.47;9.67;;;;;;;14.82;31.71;97598.91;5071183;28;20465;-78
2021/12/03 04:34:14;;;;;;;28.70;10.07;;;;;;;14.97;31.52;97588.53;5037650;28;20032;-74
2021/12/03 04:36:40;;;;;;;23.52;9.65;;;;;;;15.01;31.92;97585.16;5070466;28;20070;-69
2021/12/03 04:39:05;;;;;;;28.10;10.37;;;;;;;15.06;31.57;97600.47;5070797;28;20078;-72
2021/12/03 04:41:31;;;;;;;37.05;11.02;;;;;;;15.11;31.40;97563.97;5076862;28;20043;-73
2021/12/03 04:43:56;;;;;;;23.03;9.83;;;;;;;15.08;31.21;97552.94;5054276;28;20134;-72
2021/12/03 04:46:22;;;;;;;22.45;9.70;;;;;;;14.94;31.54;97575.63;5070681;28;20044;-71
2021/12/03 04:48:49;;;;;;;30.95;11.55;;;;;;;15.73;30.94;97590.88;5070450;28;20134;-73
2021/12/03 04:51:15;;;;;;;34.23;11.87;;;;;;;15.29;31.40;97589.72;5071147;28;20044;-74
2021/12/03 04:53:41;;;;;;;35.72;11.13;;;;;;;15.34;31.49;97597.88;5070437;28;20044;-73
2021/12/03 04:56:06;;;;;;;29.05;12.15;;;;;;;15.27;31.55;97593.69;5037498;28;20043;-73
2021/12/03 04:58:32;;;;;;;28.48;11.55;;;;;;;14.82;31.96;97602.38;5054058;28;20047;-74
2021/12/03 05:00:58;;;;;;;36.97;13.02;;;;;;;15.67;31.19;97623.94;5053538;28;20119;-76
2021/12/03 05:03:26;;;;;;;33.88;12.35;;;;;;;15.69;31.42;97619.16;5087001;28;20101;-74
2021/12/03 05:05:55;;;;;;;42.08;12.85;;;;;;;15.79;30.98;97622.81;5087995;28;20178;-76
2021/12/03 05:08:25;;;;;;;36.77;13.67;;;;;;;15.34;31.42;97597.88;5053221;28;20698;-75
2021/12/03 05:10:51;;;;;;;35.13;12.75;;;;;;;14.73;31.66;97603.78;5104716;28;20064;-76
2021/12/03 05:13:26;;;;;;;36.80;13.55;;;;;;;15.61;31.56;97617.69;5052948;28;20041;-77
2021/12/03 05:15:53;;;;;;;33.97;13.18;;;;;;;15.39;31.41;97632.75;5070217;28;20122;-77
2021/12/03 05:18:21;;;;;;;43.10;14.52;;;;;;;15.15;31.72;97556.28;5037696;28;20048;-76
2021/12/03 05:20:49;;;;;;;37.83;13.27;;;;;;;15.65;31.25;97642.94;5089167;28;20047;-77
2021/12/03 05:23:20;;;;;;;44.72;14.65;;;;;;;15.31;31.37;97630.44;5075530;28;20079;-75
2021/12/03 05:25:46;;;;;;;32.88;13.05;;;;;;;15.21;31.70;97640.91;5047864;28;20146;-68
2021/12/03 05:28:12;;;;;;;31.25;12.85;;;;;;;15.19;31.44;97645.69;5063397;28;20129;-76
2021/12/03 05:30:38;;;;;;;30.90;12.50;;;;;;;15.51;31.10;97624.69;5091776;28;20079;-79
2021/12/03 05:33:05;;;;;;;30.35;12.27;;;;;;;15.84;30.98;97652.38;5056294;28;20043;-77
2021/12/03 05:35:31;;;;;;;27.73;12.85;;;;;;;15.37;31.46;97639.34;5091998;28;20056;-74
2021/12/03 05:37:57;;;;;;;29.63;12.75;;;;;;;15.57;31.16;97651.31;5074636;28;20048;-76
2021/12/03 05:40:23;;;;;;;30.85;12.68;;;;;;;15.54;30.69;97656.31;5093149;28;20043;-75
2021/12/03 05:42:50;;;;;;;23.00;11.17;;;;;;;15.68;30.59;97658.50;5057821;28;20054;-75
2021/12/03 05:45:27;;;;;;;28.92;12.45;;;;;;;16.29;30.51;97663.09;5074918;28;20055;-72
2021/12/03 05:47:54;;;;;;;33.00;11.50;;;;;;;15.36;31.28;97662.59;5058641;28;20048;-76
2021/12/03 05:50:20;;;;;;;38.97;13.23;;;;;;;15.94;30.72;97660.59;5092966;28;20059;-75
2021/12/03 05:52:48;;;;;;;33.85;13.15;;;;;;;16.03;30.46;97667.19;5093090;28;20082;-78
2021/12/03 05:55:14;;;;;;;29.98;13.20;;;;;;;15.95;30.32;97664.06;5057709;28;20036;-75
2021/12/03 05:57:40;;;;;;;37.63;14.23;;;;;;;16.10;30.42;97694.63;5092415;28;20040;-72
2021/12/03 06:00:10;;;;;;;34.03;13.80;;;;;;;16.65;29.87;97682.22;5091449;28;20044;-74
2021/12/03 06:02:36;;;;;;;37.83;15.85;;;;;;;15.63;30.38;97698.53;5074403;28;20036;-75
2021/12/03 06:05:02;;;;;;;36.63;14.43;;;;;;;15.81;30.70;97684.97;5092316;28;20067;-74
2021/12/03 06:07:29;;;;;;;33.37;14.77;;;;;;;15.48;30.79;97684.03;5057881;28;20096;-74
2021/12/03 06:09:54;;;;;;;37.40;15.40;;;;;;;15.52;30.59;97711.91;5057561;28;20044;-74
2021/12/03 06:12:20;;;;;;;33.63;14.17;;;;;;;15.78;30.52;97701.50;5090981;28;20063;-74
2021/12/03 06:14:45;;;;;;;38.42;15.25;;;;;;;15.63;30.29;97677.13;5090766;28;20495;-73
2021/12/03 06:17:13;;;;;;;36.60;15.57;;;;;;;16.08;30.01;97706.63;5057464;28;20044;-72
2021/12/03 06:19:42;;;;;;;38.17;14.73;;;;;;;16.66;29.74;97699.94;5090809;28;20036;-73
2021/12/03 06:22:08;;;;;;;49.23;16.17;;;;;;;16.26;30.05;97704.56;5091255;28;20502;-74
2021/12/03 06:24:35;;;;;;;41.28;15.65;;;;;;;15.85;30.43;97707.53;5108725;28;20052;-73
2021/12/03 06:27:01;;;;;;;40.53;15.50;;;;;;;15.50;30.67;97712.16;5092395;28;20079;-73
2021/12/03 06:29:27;;;;;;;44.70;17.17;;;;;;;15.03;31.18;97705.22;5091998;28;20523;-74
2021/12/03 06:31:52;;;;;;;37.67;16.87;;;;;;;15.25;30.90;97714.28;5090825;28;20139;-75
2021/12/03 06:34:18;;;;;;;42.13;17.90;;;;;;;15.46;30.86;97720.91;5091419;28;20071;-75
2021/12/03 06:36:44;;;;;;;44.63;17.03;;;;;;;15.56;30.74;97711.22;5090693;28;20381;-74
2021/12/03 06:39:09;;;;;;;35.50;15.15;;;;;;;16.03;30.44;97723.44;5092290;28;20105;-68
2021/12/03 06:41:35;;;;;;;26.45;14.57;;;;;;;15.86;30.03;97709.16;5091221;28;20485;-75
2021/12/03 06:44:00;;;;;;;22.55;13.25;;;;;;;16.86;29.21;97726.25;5074131;28;20044;-75
2021/12/03 06:46:26;;;;;;;25.23;12.85;;;;;;;16.97;28.64;97705.78;5091916;28;20093;-75
2021/12/03 06:48:52;;;;;;;20.80;12.38;;;;;;;17.62;27.76;97714.78;5058079;28;20134;-73
2021/12/03 06:51:17;;;;;;;22.33;12.70;;;;;;;17.31;28.00;97729.63;5041128;28;20044;-74
2021/12/03 06:53:46;;;;;;;24.80;12.52;;;;;;;16.74;28.00;97738.94;5090813;28;20104;-75
2021/12/03 06:56:20;;;;;;;20.77;12.20;;;;;;;16.17;29.48;97742.69;5040839;28;20529;-76
2021/12/03 06:58:47;;;;;;;18.83;12.15;;;;;;;16.11;30.22;97743.66;5090256;28;20518;-74
2021/12/03 07:01:13;;;;;;;20.00;12.27;;;;;;;16.04;30.24;97719.69;5073277;28;20432;-76
2021/12/03 07:03:38;;;;;;;21.85;12.52;;;;;;;15.34;30.99;97753.00;5089761;28;20073;-75
2021/12/03 07:06:04;;;;;;;24.10;12.80;;;;;;;15.51;31.04;97745.91;5071701;28;20036;-75
2021/12/03 07:08:30;;;;;;;21.60;12.23;;;;;;;15.87;30.21;97750.94;5055483;28;20067;-74
2021/12/03 07:10:55;;;;;;;26.40;13.57;;;;;;;15.67;30.43;97758.53;5089168;28;20075;-76
2021/12/03 07:13:21;;;;;;;19.70;12.18;;;;;;;15.79;30.27;97729.09;5055843;28;20063;-74
2021/12/03 07:15:47;;;;;;;22.50;11.93;;;;;;;15.22;31.04;97785.06;5073973;28;20036;-75
2021/12/03 07:18:12;;;;;;;20.27;12.32;;;;;;;15.47;30.29;97722.53;5074416;28;20178;-75
2021/12/03 07:20:38;;;;;;;22.38;12.50;;;;;;;15.06;30.55;97737.66;5089703;28;20133;-74
2021/12/03 07:23:03;;;;;;;21.35;12.93;;;;;;;15.86;30.41;97740.47;5056509;28;20039;-75
2021/12/03 07:25:29;;;;;;;22.90;12.70;;;;;;;15.95;30.28;97739.88;5039812;28;20238;-74
2021/12/03 07:27:55;;;;;;;21.63;13.27;;;;;;;15.89;30.10;97738.13;5090220;28;20514;-74
2021/12/03 07:30:21;;;;;;;22.55;12.93;;;;;;;16.20;30.00;97750.25;5056399;28;20133;-72
2021/12/03 07:32:47;;;;;;;22.10;13.05;;;;;;;15.93;30.41;97714.38;5089958;28;20544;-74
2021/12/03 07:35:13;;;;;;;19.48;11.77;;;;;;;15.83;30.25;97755.16;5073549;28;20040;-74
2021/12/03 07:37:39;;;;;;;18.17;11.95;;;;;;;15.61;30.33;97756.00;5056859;28;20046;-73
2021/12/03 07:40:06;;;;;;;19.63;11.88;;;;;;;15.74;30.45;97729.81;5090065;28;20078;-73
2021/12/03 07:42:33;;;;;;;17.23;11.45;;;;;;;16.44;29.93;97776.72;5090258;28;20079;-73
2021/12/03 07:44:59;;;;;;;17.30;10.77;;;;;;;15.96;29.77;97786.19;5072376;28;20131;-74
2021/12/03 07:47:25;;;;;;;22.85;11.48;;;;;;;15.73;29.64;97815.69;5090262;28;20043;-72
2021/12/03 07:49:51;;;;;;;22.45;13.90;;;;;;;15.55;30.66;97781.84;5089434;28;20044;-73
2021/12/03 07:52:20;;;;;;;18.90;11.35;;;;;;;15.89;30.22;97796.22;5089615;28;20040;-71
2021/12/03 07:54:45;;;;;;;16.48;9.57;;;;;;;15.14;30.85;97741.84;5090853;28;20083;-72
2021/12/03 07:57:11;;;;;;;17.95;10.73;;;;;;;15.43;30.59;97762.31;5072718;28;20075;-72
2021/12/03 07:59:37;;;;;;;17.05;10.82;;;;;;;15.34;29.93;97747.63;5089402;28;20040;-73
2021/12/03 08:02:03;;;;;;;16.05;10.10;;;;;;;15.81;30.18;97788.53;5089406;28;20040;-73
2021/12/03 08:04:29;;;;;;;15.40;10.20;;;;;;;15.41;30.40;97760.94;5090585;28;20070;-72
2021/12/03 08:06:55;;;;;;;22.63;10.70;;;;;;;16.19;29.76;97778.88;5072404;28;20126;-70
2021/12/03 08:09:22;;;;;;;16.80;9.80;;;;;;;16.61;29.50;97782.94;5088997;28;20039;-72
2021/12/03 08:11:48;;;;;;;16.52;9.77;;;;;;;16.37;29.34;97793.97;5088602;28;20056;-72
2021/12/03 08:14:13;;;;;;;16.08;9.73;;;;;;;15.86;29.17;97783.28;5088607;28;20054;-72
2021/12/03 08:16:39;;;;;;;14.63;9.60;;;;;;;15.88;29.62;97779.34;5090472;28;20048;-73
2021/12/03 08:19:05;;;;;;;18.25;10.20;;;;;;;16.36;29.01;97769.03;5088738;28;20036;-72
2021/12/03 08:21:31;;;;;;;14.13;9.32;;;;;;;16.10;29.91;97793.72;5089888;28;20126;-71
2021/12/03 08:23:57;;;;;;;16.02;9.88;;;;;;;16.54;28.89;97787.63;5090348;28;20575;-72
2021/12/03 08:26:23;;;;;;;13.95;9.23;;;;;;;15.83;28.99;97775.75;5071559;28;20055;-71
2021/12/03 08:28:49;;;;;;;15.70;8.27;;;;;;;16.27;29.45;97785.72;5088779;28;20230;-73
2021/12/03 08:31:15;;;;;;;20.70;8.32;;;;;;;16.07;29.12;97786.16;5088726;28;20044;-73
2021/12/03 08:33:42;;;;;;;11.32;7.35;;;;;;;16.21;28.58;97787.50;5088528;28;20043;-69
2021/12/03 08:36:08;;;;;;;11.38;8.48;;;;;;;16.81;27.80;97807.41;5090107;28;20054;-72
2021/12/03 08:38:34;;;;;;;15.23;7.65;;;;;;;16.29;28.46;97813.94;5088531;28;20032;-73
2021/12/03 08:41:00;;;;;;;11.57;7.95;;;;;;;16.94;28.43;97810.84;5071606;28;20043;-73
2021/12/03 08:43:25;;;;;;;21.67;8.00;;;;;;;16.72;27.34;97826.81;5054584;28;20166;-73
2021/12/03 08:45:54;;;;;;;13.90;7.32;;;;;;;16.31;28.02;97808.31;5089557;28;20408;-74
2021/12/03 08:48:22;;;;;;;10.32;6.78;;;;;;;16.87;28.12;97805.63;5055497;28;20535;-76
2021/12/03 08:50:53;;;;;;;11.98;7.07;;;;;;;16.53;27.73;97810.13;5089876;28;20055;-76
2021/12/03 08:55:56;;;;;;;10.85;6.90;;;;;;;16.80;28.03;97810.34;5087878;28;20065;-71
2021/12/03 08:58:22;;;;;;;13.40;7.50;;;;;;;17.02;27.42;97835.38;5087809;28;20055;-72
2021/12/03 09:00:47;;;;;;;11.52;7.47;;;;;;;16.98;27.90;97823.53;5088864;28;20066;-72
2021/12/03 09:03:13;;;;;;;12.10;6.82;;;;;;;16.60;27.75;97826.06;5089226;28;20040;-71
2021/12/03 09:05:39;;;;;;;14.55;7.88;;;;;;;16.83;27.18;97829.44;5088421;28;20044;-71
2021/12/03 09:08:06;;;;;;;12.30;7.80;;;;;;;16.20;27.91;97819.88;5089498;28;20530;-72
2021/12/03 09:10:32;;;;;;;12.02;7.63;;;;;;;16.32;28.29;97824.16;5089300;28;20044;-71
2021/12/03 09:12:58;;;;;;;13.95;7.82;;;;;;;16.11;28.82;97830.16;5053887;28;20075;-72
2021/12/03 09:15:33;;;;;;;18.15;8.05;;;;;;;16.52;29.01;97835.31;5089494;28;20177;-71
2021/12/03 09:23:03;;;;;;;15.98;9.18;;;;;;;16.80;28.40;97808.47;5089458;28;20054;-72
2021/12/03 09:25:35;;;;;;;16.42;9.48;;;;;;;16.80;28.41;97837.16;5072005;28;20055;-74
2021/12/03 09:28:03;;;;;;;19.75;10.15;;;;;;;16.96;28.44;97852.44;5089129;28;20101;-71
2021/12/03 09:30:36;;;;;;;18.58;10.35;;;;;;;16.42;28.79;97861.06;5089132;28;20036;-72
2021/12/03 09:33:03;;;;;;;13.88;9.35;;;;;;;17.08;28.69;97836.28;5087997;28;20040;-72
2021/12/03 09:35:30;;;;;;;17.48;10.45;;;;;;;16.58;28.38;97818.25;5088590;28;20154;-72
2021/12/03 09:37:56;;;;;;;18.52;9.45;;;;;;;16.19;28.94;97827.09;5089193;28;20048;-71
2021/12/03 09:40:25;;;;;;;15.32;9.30;;;;;;;16.40;28.52;97837.19;5104749;28;20047;-72
2021/12/03 09:42:50;;;;;;;19.77;9.32;;;;;;;16.35;29.09;97814.81;5089043;28;20047;-72
2021/12/03 09:45:16;;;;;;;14.55;8.73;;;;;;;16.26;28.97;97833.16;5071172;28;20078;-72
2021/12/03 09:47:42;;;;;;;16.50;9.30;;;;;;;16.11;28.77;97794.53;5088831;28;20412;-71
2021/12/03 09:50:13;;;;;;;16.13;9.38;;;;;;;16.34;29.30;97827.44;5089102;28;20040;-72
2021/12/03 09:55:19;;;;;;;14.88;8.48;;;;;;;16.03;28.91;97782.34;5088091;28;20062;-72
2021/12/03 10:13:18;;;;;;;15.15;8.77;;;;;;;16.85;28.45;97840.72;5076593;28;20118;-72
2021/12/03 10:16:00;;;;;;;14.50;8.63;;;;;;;17.01;28.70;97827.56;5092452;28;20495;-71
2021/12/03 10:18:45;;;;;;;18.58;9.40;;;;;;;16.85;29.10;97826.53;5092108;28;20054;-73
2021/12/03 10:35:04;;;;;;;22.15;9.60;;;;;;;16.66;28.68;97828.59;5091404;28;20085;-71
2021/12/03 10:46:28;;;;;;;16.08;10.07;;;;;;;16.83;28.83;97824.09;5091085;28;20101;-72
2021/12/03 10:49:49;;;;;;;17.80;9.98;;;;;;;16.54;29.29;97830.50;5090468;28;20088;-72
2021/12/03 10:59:38;;;;;;;17.75;9.85;;;;;;;16.07;30.06;97829.00;5091487;28;20101;-73
2021/12/03 11:29:32;;;;;;;15.45;9.07;;;;;;;15.58;29.85;97818.81;5054289;28;20054;-73
2021/12/03 11:33:45;;;;;;;13.93;7.85;;;;;;;16.39;29.20;97803.38;5069440;28;20040;-72
2021/12/03 12:01:24;;;;;;;15.90;8.98;;;;;;;15.90;29.05;97846.84;5084707;28;20200;-73
2021/12/03 13:18:57;;;;;;;18.95;10.50;;;;;;;16.48;28.35;97710.88;5068549;28;20049;-72
2021/12/03 14:10:37;;;;;;;20.63;10.80;;;;;;;15.71;30.00;97746.34;5038986;28;20059;-74
2021/12/03 14:46:11;;;;;;;33.97;15.93;;;;;;;15.42;31.95;97731.28;5053402;28;20483;-76
2021/12/03 14:56:18;;;;;;;37.27;17.73;;;;;;;15.60;31.72;97699.00;5073101;28;20063;-76
2021/12/03 15:01:23;;;;;;;37.23;18.23;;;;;;;15.17;31.76;97682.53;5074911;28;20082;-75
2021/12/03 15:04:04;;;;;;;33.03;17.97;;;;;;;15.37;31.60;97680.31;5056856;28;20127;-78
2021/12/03 15:06:34;;;;;;;38.90;17.92;;;;;;;15.30;31.64;97684.94;5042724;28;20163;-81
2021/12/03 15:09:09;;;;;;;37.08;18.65;;;;;;;15.49;31.52;97691.00;5041430;28;20044;-78
2021/12/03 15:34:53;;;;;;;106.43;22.27;;;;;;;14.78;31.84;97609.25;5072800;28;20044;-77
2021/12/03 16:04:22;;;;;;;37.20;19.83;;;;;;;15.57;31.41;97647.81;5050728;28;20062;-76
2021/12/03 16:09:32;;;;;;;44.67;20.85;;;;;;;15.27;31.81;97640.78;5072948;28;20075;-78
2021/12/03 16:20:50;;;;;;;50.53;20.20;;;;;;;14.96;31.97;97616.31;5090099;28;20561;-78
2021/12/03 16:23:26;;;;;;;47.00;20.58;;;;;;;14.98;32.25;97625.72;5061295;28;20040;-77
2021/12/03 16:52:59;;;;;;;69.93;22.95;;;;;;;15.28;31.62;97593.47;5058034;28;20112;-75
2021/12/03 16:55:25;;;;;;;52.53;23.17;;;;;;;15.08;31.84;97552.94;5056213;28;20040;-75
2021/12/03 16:57:51;;;;;;;59.70;22.90;;;;;;;15.21;31.82;97582.06;5072662;28;20040;-74
2021/12/03 17:03:04;;;;;;;53.77;21.07;;;;;;;15.22;31.68;97570.34;5074422;28;20043;-75
2021/12/03 17:08:30;;;;;;;71.33;24.57;;;;;;;15.24;31.60;97579.75;5058577;28;20051;-75
2021/12/03 17:11:32;;;;;;;91.37;25.23;;;;;;;15.21;31.55;97582.06;5074532;28;20543;-76
2021/12/03 17:48:27;;;;;;;59.97;26.67;;;;;;;16.05;30.54;97579.38;5058275;28;20059;-75
2021/12/03 17:51:34;;;;;;;52.75;25.13;;;;;;;16.05;30.92;97575.91;5056136;28;20067;-74
2021/12/03 17:56:25;;;;;;;51.00;24.10;;;;;;;15.88;30.99;97559.84;5072350;28;20044;-75
2021/12/03 17:59:00;;;;;;;69.93;24.13;;;;;;;15.81;31.14;97561.03;5089141;28;20093;-75
2021/12/03 18:07:12;;;;;;;49.17;22.55;;;;;;;15.44;31.66;97551.81;5072038;28;20036;-75
2021/12/03 18:17:23;;;;;;;36.97;19.47;;;;;;;15.86;31.30;97564.63;5074564;28;20052;-75
2021/12/03 18:57:22;;;;;;;16.73;11.57;;;;;;;15.15;31.61;97566.97;5092312;28;20059;-73
2021/12/03 18:59:55;;;;;;;19.53;10.80;;;;;;;15.34;31.38;97589.84;5091983;28;20153;-74
2021/12/03 19:02:23;;;;;;;15.50;10.50;;;;;;;15.31;31.66;97605.53;5075303;28;20044;-74
2021/12/03 19:05:00;;;;;;;18.00;9.90;;;;;;;15.35;31.79;97620.06;5058739;28;20503;-74
2021/12/03 19:07:31;;;;;;;15.90;9.68;;;;;;;14.98;31.62;97630.25;5091792;28;20044;-74
2021/12/03 19:10:01;;;;;;;16.52;9.68;;;;;;;15.20;31.74;97610.69;5058915;28;20048;-74
2021/12/03 19:12:29;;;;;;;15.05;10.32;;;;;;;15.33;31.67;97616.81;5075351;28;20059;-74
2021/12/03 19:14:59;;;;;;;17.47;10.10;;;;;;;14.96;32.17;97611.75;5074384;28;20503;-74
2021/12/03 19:17:25;;;;;;;15.95;10.43;;;;;;;15.40;31.56;97604.16;5075621;28;20050;-74
2021/12/03 19:19:57;;;;;;;12.98;8.82;;;;;;;15.55;31.69;97605.25;5058174;28;20084;-74
2021/12/03 19:22:23;;;;;;;17.38;9.93;;;;;;;15.36;31.57;97609.13;5042431;28;20055;-74
2021/12/03 19:24:49;;;;;;;15.20;9.70;;;;;;;15.64;31.59;97605.66;5058358;28;20048;-74
2021/12/03 19:27:15;;;;;;;12.30;8.85;;;;;;;15.17;31.30;97579.09;5074729;28;20132;-74
2021/12/03 19:29:43;;;;;;;15.95;9.82;;;;;;;15.10;31.69;97575.72;5057587;28;20081;-75
2021/12/03 19:32:09;;;;;;;12.75;8.85;;;;;;;15.50;31.62;97591.78;5074667;28;20043;-74
2021/12/03 19:34:35;;;;;;;14.47;8.80;;;;;;;15.73;31.05;97593.56;5074239;28;20073;-74
2021/12/03 19:37:04;;;;;;;17.42;9.00;;;;;;;16.00;30.74;97610.63;5040693;28;20055;-74